Terminal Aerodrome Forecast
Issued by NWS

Home | Current Version | Previous Version | Text Only | Print | Product List | Glossary On
Versions: 1 2 3 4 5 6 7 8 9 10 11 12 13 14
000
FTUS45 KSLC 201120
TAFENV
TAF
KENV 201120Z 2012/2112 VRB03KT P6SM SCT070 BKN120
     FM201800 VRB06KT P6SM SCT050 BKN070
     FM202000 34007KT P6SM VCSH SCT030 BKN050
     FM210200 VRB06KT P6SM VCSH SCT040 BKN070=

USA.gov is the U.S. government's official web portal to all federal, state and local government web resources and services.